sensor_id;sensor_type;location;lat;lon;timestamp;pressure;altitude;pressure_sealevel;temperature
68012;BMP180;54794;48.348;7.878;2023-02-28T00:01:46;99740.00;;;2.20
68012;BMP180;54794;48.348;7.878;2023-02-28T00:04:14;99732.00;;;2.30
68012;BMP180;54794;48.348;7.878;2023-02-28T00:06:41;99727.00;;;2.00
68012;BMP180;54794;48.348;7.878;2023-02-28T00:09:08;99726.00;;;2.00
68012;BMP180;54794;48.348;7.878;2023-02-28T00:11:42;99735.00;;;2.10
68012;BMP180;54794;48.348;7.878;2023-02-28T00:14:09;99736.00;;;1.60
68012;BMP180;54794;48.348;7.878;2023-02-28T00:16:36;99727.00;;;1.90
68012;BMP180;54794;48.348;7.878;2023-02-28T00:19:03;99724.00;;;2.00
68012;BMP180;54794;48.348;7.878;2023-02-28T00:21:30;99725.00;;;2.00
68012;BMP180;54794;48.348;7.878;2023-02-28T00:23:57;99724.00;;;1.90
68012;BMP180;54794;48.348;7.878;2023-02-28T00:26:24;99724.00;;;1.90
68012;BMP180;54794;48.348;7.878;2023-02-28T00:28:52;99715.00;;;1.90
68012;BMP180;54794;48.348;7.878;2023-02-28T00:31:19;99730.00;;;1.30
68012;BMP180;54794;48.348;7.878;2023-02-28T00:33:46;99718.00;;;1.50
68012;BMP180;54794;48.348;7.878;2023-02-28T00:36:13;99729.00;;;1.40
68012;BMP180;54794;48.348;7.878;2023-02-28T00:38:41;99712.00;;;1.60
68012;BMP180;54794;48.348;7.878;2023-02-28T00:41:08;99715.00;;;1.40
68012;BMP180;54794;48.348;7.878;2023-02-28T00:43:38;99717.00;;;1.60
68012;BMP180;54794;48.348;7.878;2023-02-28T00:46:06;99718.00;;;1.70
68012;BMP180;54794;48.348;7.878;2023-02-28T00:48:33;99724.00;;;1.50
68012;BMP180;54794;48.348;7.878;2023-02-28T00:51:01;99716.00;;;1.40
68012;BMP180;54794;48.348;7.878;2023-02-28T00:53:29;99740.00;;;1.30
68012;BMP180;54794;48.348;7.878;2023-02-28T00:55:56;99727.00;;;1.20
68012;BMP180;54794;48.348;7.878;2023-02-28T00:58:24;99727.00;;;1.30
68012;BMP180;54794;48.348;7.878;2023-02-28T01:00:51;99727.00;;;1.30
68012;BMP180;54794;48.348;7.878;2023-02-28T01:03:20;99735.00;;;1.30
68012;BMP180;54794;48.348;7.878;2023-02-28T01:05:49;99732.00;;;1.70
68012;BMP180;54794;48.348;7.878;2023-02-28T01:08:16;99745.00;;;1.60
68012;BMP180;54794;48.348;7.878;2023-02-28T01:10:43;99736.00;;;1.50
68012;BMP180;54794;48.348;7.878;2023-02-28T01:13:11;99743.00;;;1.40
68012;BMP180;54794;48.348;7.878;2023-02-28T01:15:46;99734.00;;;1.30
68012;BMP180;54794;48.348;7.878;2023-02-28T01:18:15;99724.00;;;1.50
68012;BMP180;54794;48.348;7.878;2023-02-28T01:20:43;99732.00;;;1.60
68012;BMP180;54794;48.348;7.878;2023-02-28T01:23:10;99730.00;;;1.40
68012;BMP180;54794;48.348;7.878;2023-02-28T01:25:37;99735.00;;;1.50
68012;BMP180;54794;48.348;7.878;2023-02-28T01:28:05;99725.00;;;1.70
68012;BMP180;54794;48.348;7.878;2023-02-28T01:30:32;99720.00;;;1.70
68012;BMP180;54794;48.348;7.878;2023-02-28T01:33:00;99717.00;;;1.70
68012;BMP180;54794;48.348;7.878;2023-02-28T01:35:27;99729.00;;;1.70
68012;BMP180;54794;48.348;7.878;2023-02-28T01:37:54;99723.00;;;1.70
68012;BMP180;54794;48.348;7.878;2023-02-28T01:40:26;99726.00;;;1.60
68012;BMP180;54794;48.348;7.878;2023-02-28T01:42:53;99723.00;;;1.50
68012;BMP180;54794;48.348;7.878;2023-02-28T01:45:25;99722.00;;;1.60
68012;BMP180;54794;48.348;7.878;2023-02-28T01:48:00;99721.00;;;1.80
68012;BMP180;54794;48.348;7.878;2023-02-28T01:50:34;99723.00;;;1.70
68012;BMP180;54794;48.348;7.878;2023-02-28T01:53:09;99726.00;;;1.70
68012;BMP180;54794;48.348;7.878;2023-02-28T01:55:37;99726.00;;;1.60
68012;BMP180;54794;48.348;7.878;2023-02-28T01:58:07;99727.00;;;1.60
68012;BMP180;54794;48.348;7.878;2023-02-28T02:00:35;99720.00;;;1.80
68012;BMP180;54794;48.348;7.878;2023-02-28T02:03:09;99724.00;;;1.80
68012;BMP180;54794;48.348;7.878;2023-02-28T02:05:40;99709.00;;;1.80
68012;BMP180;54794;48.348;7.878;2023-02-28T02:08:12;99716.00;;;1.50
68012;BMP180;54794;48.348;7.878;2023-02-28T02:10:52;99722.00;;;1.50
68012;BMP180;54794;48.348;7.878;2023-02-28T02:17:19;99713.00;;;1.50
68012;BMP180;54794;48.348;7.878;2023-02-28T02:21:01;99710.00;;;1.60
68012;BMP180;54794;48.348;7.878;2023-02-28T02:25:54;99706.00;;;1.70
68012;BMP180;54794;48.348;7.878;2023-02-28T02:28:57;99716.00;;;1.50
68012;BMP180;54794;48.348;7.878;2023-02-28T02:32:09;99720.00;;;1.30
68012;BMP180;54794;48.348;7.878;2023-02-28T02:35:27;99706.00;;;1.50
68012;BMP180;54794;48.348;7.878;2023-02-28T02:40:53;99717.00;;;1.50
68012;BMP180;54794;48.348;7.878;2023-02-28T02:43:47;99707.00;;;1.40
68012;BMP180;54794;48.348;7.878;2023-02-28T02:46:39;99705.00;;;1.50
68012;BMP180;54794;48.348;7.878;2023-02-28T02:49:13;99706.00;;;1.50
68012;BMP180;54794;48.348;7.878;2023-02-28T02:51:43;99699.00;;;1.30
68012;BMP180;54794;48.348;7.878;2023-02-28T02:54:21;99700.00;;;1.30
68012;BMP180;54794;48.348;7.878;2023-02-28T02:56:50;99696.00;;;1.40
68012;BMP180;54794;48.348;7.878;2023-02-28T02:59:21;99702.00;;;1.40
68012;BMP180;54794;48.348;7.878;2023-02-28T03:01:59;99705.00;;;1.40
68012;BMP180;54794;48.348;7.878;2023-02-28T03:04:33;99692.00;;;1.50
68012;BMP180;54794;48.348;7.878;2023-02-28T03:07:21;99708.00;;;1.50
68012;BMP180;54794;48.348;7.878;2023-02-28T03:10:03;99695.00;;;1.50
68012;BMP180;54794;48.348;7.878;2023-02-28T03:13:17;99698.00;;;1.50
68012;BMP180;54794;48.348;7.878;2023-02-28T03:27:29;99695.00;;;1.50
68012;BMP180;54794;48.348;7.878;2023-02-28T03:30:27;99694.00;;;1.50
68012;BMP180;54794;48.348;7.878;2023-02-28T03:33:08;99689.00;;;1.50
68012;BMP180;54794;48.348;7.878;2023-02-28T03:35:51;99677.00;;;1.30
68012;BMP180;54794;48.348;7.878;2023-02-28T03:38:36;99687.00;;;1.40
68012;BMP180;54794;48.348;7.878;2023-02-28T03:41:31;99675.00;;;1.60
68012;BMP180;54794;48.348;7.878;2023-02-28T03:44:17;99686.00;;;1.50
68012;BMP180;54794;48.348;7.878;2023-02-28T03:46:57;99680.00;;;1.40
68012;BMP180;54794;48.348;7.878;2023-02-28T03:49:39;99678.00;;;1.30
68012;BMP180;54794;48.348;7.878;2023-02-28T03:52:10;99691.00;;;1.20
68012;BMP180;54794;48.348;7.878;2023-02-28T03:54:52;99684.00;;;1.30
68012;BMP180;54794;48.348;7.878;2023-02-28T03:57:51;99696.00;;;1.40
68012;BMP180;54794;48.348;7.878;2023-02-28T04:00:28;99696.00;;;1.20
68012;BMP180;54794;48.348;7.878;2023-02-28T04:02:57;99696.00;;;1.30
68012;BMP180;54794;48.348;7.878;2023-02-28T04:10:06;99690.00;;;1.00
68012;BMP180;54794;48.348;7.878;2023-02-28T04:17:01;99691.00;;;1.00
68012;BMP180;54794;48.348;7.878;2023-02-28T04:19:28;99688.00;;;1.20
68012;BMP180;54794;48.348;7.878;2023-02-28T04:21:55;99698.00;;;1.20
68012;BMP180;54794;48.348;7.878;2023-02-28T04:24:26;99689.00;;;1.20
68012;BMP180;54794;48.348;7.878;2023-02-28T04:26:57;99694.00;;;1.20
68012;BMP180;54794;48.348;7.878;2023-02-28T04:29:30;99696.00;;;1.20
68012;BMP180;54794;48.348;7.878;2023-02-28T04:32:02;99704.00;;;1.20
68012;BMP180;54794;48.348;7.878;2023-02-28T04:34:31;99686.00;;;1.20
68012;BMP180;54794;48.348;7.878;2023-02-28T04:36:59;99708.00;;;1.10
68012;BMP180;54794;48.348;7.878;2023-02-28T04:39:43;99700.00;;;1.10
68012;BMP180;54794;48.348;7.878;2023-02-28T04:42:11;99701.00;;;1.10
68012;BMP180;54794;48.348;7.878;2023-02-28T04:44:39;99699.00;;;1.20
68012;BMP180;54794;48.348;7.878;2023-02-28T04:47:06;99688.00;;;1.20
68012;BMP180;54794;48.348;7.878;2023-02-28T04:49:33;99703.00;;;1.10
68012;BMP180;54794;48.348;7.878;2023-02-28T04:52:00;99693.00;;;1.30
68012;BMP180;54794;48.348;7.878;2023-02-28T04:54:27;99693.00;;;1.00
68012;BMP180;54794;48.348;7.878;2023-02-28T04:56:55;99713.00;;;1.00
68012;BMP180;54794;48.348;7.878;2023-02-28T04:59:22;99710.00;;;1.10
68012;BMP180;54794;48.348;7.878;2023-02-28T05:01:49;99705.00;;;1.20
68012;BMP180;54794;48.348;7.878;2023-02-28T05:04:18;99702.00;;;1.10
68012;BMP180;54794;48.348;7.878;2023-02-28T05:06:45;99708.00;;;1.10
68012;BMP180;54794;48.348;7.878;2023-02-28T05:09:12;99711.00;;;1.10
68012;BMP180;54794;48.348;7.878;2023-02-28T05:11:40;99715.00;;;0.90
68012;BMP180;54794;48.348;7.878;2023-02-28T05:14:11;99701.00;;;0.90
68012;BMP180;54794;48.348;7.878;2023-02-28T05:16:39;99713.00;;;1.10
68012;BMP180;54794;48.348;7.878;2023-02-28T05:19:06;99701.00;;;1.00
68012;BMP180;54794;48.348;7.878;2023-02-28T05:21:36;99700.00;;;1.20
68012;BMP180;54794;48.348;7.878;2023-02-28T05:24:09;99708.00;;;1.10
68012;BMP180;54794;48.348;7.878;2023-02-28T05:26:40;99714.00;;;1.10
68012;BMP180;54794;48.348;7.878;2023-02-28T05:29:08;99708.00;;;1.00
68012;BMP180;54794;48.348;7.878;2023-02-28T05:31:36;99698.00;;;0.80
68012;BMP180;54794;48.348;7.878;2023-02-28T05:34:03;99706.00;;;1.00
68012;BMP180;54794;48.348;7.878;2023-02-28T05:36:31;99713.00;;;1.00
68012;BMP180;54794;48.348;7.878;2023-02-28T05:38:58;99702.00;;;0.80
68012;BMP180;54794;48.348;7.878;2023-02-28T05:41:26;99713.00;;;1.00
68012;BMP180;54794;48.348;7.878;2023-02-28T05:43:53;99705.00;;;1.00
68012;BMP180;54794;48.348;7.878;2023-02-28T05:46:21;99722.00;;;0.80
68012;BMP180;54794;48.348;7.878;2023-02-28T05:48:48;99721.00;;;0.90
68012;BMP180;54794;48.348;7.878;2023-02-28T05:51:16;99719.00;;;0.80
68012;BMP180;54794;48.348;7.878;2023-02-28T05:53:43;99720.00;;;0.90
68012;BMP180;54794;48.348;7.878;2023-02-28T05:56:10;99720.00;;;0.80
68012;BMP180;54794;48.348;7.878;2023-02-28T05:58:37;99721.00;;;0.90
68012;BMP180;54794;48.348;7.878;2023-02-28T06:01:45;99733.00;;;1.00
68012;BMP180;54794;48.348;7.878;2023-02-28T06:04:18;99731.00;;;1.00
68012;BMP180;54794;48.348;7.878;2023-02-28T06:06:59;99730.00;;;1.00
68012;BMP180;54794;48.348;7.878;2023-02-28T06:09:32;99733.00;;;0.80
68012;BMP180;54794;48.348;7.878;2023-02-28T06:12:44;99736.00;;;0.90
68012;BMP180;54794;48.348;7.878;2023-02-28T06:15:33;99744.00;;;0.90
68012;BMP180;54794;48.348;7.878;2023-02-28T06:18:04;99752.00;;;1.00
68012;BMP180;54794;48.348;7.878;2023-02-28T06:21:40;99737.00;;;0.90
68012;BMP180;54794;48.348;7.878;2023-02-28T06:24:31;99744.00;;;0.80
68012;BMP180;54794;48.348;7.878;2023-02-28T06:27:03;99754.00;;;0.80
68012;BMP180;54794;48.348;7.878;2023-02-28T06:29:39;99755.00;;;1.00
68012;BMP180;54794;48.348;7.878;2023-02-28T06:32:19;99754.00;;;0.90
68012;BMP180;54794;48.348;7.878;2023-02-28T06:35:02;99760.00;;;0.90
68012;BMP180;54794;48.348;7.878;2023-02-28T06:37:43;99763.00;;;1.10
68012;BMP180;54794;48.348;7.878;2023-02-28T06:40:16;99771.00;;;1.10
68012;BMP180;54794;48.348;7.878;2023-02-28T06:42:45;99759.00;;;1.20
68012;BMP180;54794;48.348;7.878;2023-02-28T06:45:24;99759.00;;;1.30
68012;BMP180;54794;48.348;7.878;2023-02-28T06:48:02;99773.00;;;1.20
68012;BMP180;54794;48.348;7.878;2023-02-28T06:50:31;99781.00;;;1.20
68012;BMP180;54794;48.348;7.878;2023-02-28T06:53:16;99767.00;;;1.10
68012;BMP180;54794;48.348;7.878;2023-02-28T06:55:43;99769.00;;;1.00
68012;BMP180;54794;48.348;7.878;2023-02-28T06:58:22;99776.00;;;1.00
68012;BMP180;54794;48.348;7.878;2023-02-28T07:01:19;99782.00;;;1.00
68012;BMP180;54794;48.348;7.878;2023-02-28T07:04:18;99768.00;;;0.90
68012;BMP180;54794;48.348;7.878;2023-02-28T07:07:10;99773.00;;;1.10
68012;BMP180;54794;48.348;7.878;2023-02-28T07:09:51;99778.00;;;1.10
68012;BMP180;54794;48.348;7.878;2023-02-28T07:12:48;99773.00;;;1.10
68012;BMP180;54794;48.348;7.878;2023-02-28T07:16:05;99781.00;;;1.10
68012;BMP180;54794;48.348;7.878;2023-02-28T07:18:41;99780.00;;;1.20
68012;BMP180;54794;48.348;7.878;2023-02-28T07:21:13;99792.00;;;1.10
68012;BMP180;54794;48.348;7.878;2023-02-28T07:23:47;99786.00;;;1.20
68012;BMP180;54794;48.348;7.878;2023-02-28T07:26:20;99781.00;;;1.20
68012;BMP180;54794;48.348;7.878;2023-02-28T07:28:53;99780.00;;;1.30
68012;BMP180;54794;48.348;7.878;2023-02-28T07:31:23;99791.00;;;1.10
68012;BMP180;54794;48.348;7.878;2023-02-28T07:33:50;99786.00;;;1.20
68012;BMP180;54794;48.348;7.878;2023-02-28T07:36:24;99794.00;;;1.10
68012;BMP180;54794;48.348;7.878;2023-02-28T07:39:03;99782.00;;;1.30
68012;BMP180;54794;48.348;7.878;2023-02-28T07:41:50;99787.00;;;1.20
68012;BMP180;54794;48.348;7.878;2023-02-28T07:44:17;99790.00;;;1.20
68012;BMP180;54794;48.348;7.878;2023-02-28T07:46:43;99788.00;;;1.50
68012;BMP180;54794;48.348;7.878;2023-02-28T07:49:11;99783.00;;;1.30
68012;BMP180;54794;48.348;7.878;2023-02-28T07:51:37;99779.00;;;1.40
68012;BMP180;54794;48.348;7.878;2023-02-28T07:54:05;99778.00;;;1.50
68012;BMP180;54794;48.348;7.878;2023-02-28T07:56:32;99781.00;;;1.60
68012;BMP180;54794;48.348;7.878;2023-02-28T07:59:02;99780.00;;;1.60
68012;BMP180;54794;48.348;7.878;2023-02-28T08:01:29;99790.00;;;1.60
68012;BMP180;54794;48.348;7.878;2023-02-28T08:03:59;99781.00;;;1.60
68012;BMP180;54794;48.348;7.878;2023-02-28T08:06:26;99783.00;;;1.60
68012;BMP180;54794;48.348;7.878;2023-02-28T08:08:53;99778.00;;;1.60
68012;BMP180;54794;48.348;7.878;2023-02-28T08:11:20;99786.00;;;1.60
68012;BMP180;54794;48.348;7.878;2023-02-28T08:13:47;99795.00;;;1.40
68012;BMP180;54794;48.348;7.878;2023-02-28T08:16:15;99789.00;;;1.70
68012;BMP180;54794;48.348;7.878;2023-02-28T08:18:45;99801.00;;;1.60
68012;BMP180;54794;48.348;7.878;2023-02-28T08:21:12;99805.00;;;1.80
68012;BMP180;54794;48.348;7.878;2023-02-28T08:23:39;99798.00;;;1.80
68012;BMP180;54794;48.348;7.878;2023-02-28T08:26:06;99793.00;;;1.80
68012;BMP180;54794;48.348;7.878;2023-02-28T08:28:34;99798.00;;;1.90
68012;BMP180;54794;48.348;7.878;2023-02-28T08:31:13;99803.00;;;1.80
68012;BMP180;54794;48.348;7.878;2023-02-28T08:33:42;99805.00;;;1.90
68012;BMP180;54794;48.348;7.878;2023-02-28T08:36:10;99790.00;;;1.90
68012;BMP180;54794;48.348;7.878;2023-02-28T08:38:38;99795.00;;;1.70
68012;BMP180;54794;48.348;7.878;2023-02-28T08:41:11;99800.00;;;1.90
68012;BMP180;54794;48.348;7.878;2023-02-28T08:43:39;99810.00;;;1.90
68012;BMP180;54794;48.348;7.878;2023-02-28T08:46:07;99807.00;;;1.70
68012;BMP180;54794;48.348;7.878;2023-02-28T08:48:35;99809.00;;;1.70
68012;BMP180;54794;48.348;7.878;2023-02-28T08:51:13;99805.00;;;1.80
68012;BMP180;54794;48.348;7.878;2023-02-28T08:53:42;99805.00;;;1.70
68012;BMP180;54794;48.348;7.878;2023-02-28T08:56:15;99812.00;;;1.80
68012;BMP180;54794;48.348;7.878;2023-02-28T08:58:47;99796.00;;;2.10
68012;BMP180;54794;48.348;7.878;2023-02-28T09:01:18;99796.00;;;2.00
68012;BMP180;54794;48.348;7.878;2023-02-28T09:03:51;99810.00;;;2.00
68012;BMP180;54794;48.348;7.878;2023-02-28T09:06:24;99809.00;;;1.90
68012;BMP180;54794;48.348;7.878;2023-02-28T09:08:52;99810.00;;;2.00
68012;BMP180;54794;48.348;7.878;2023-02-28T09:11:19;99799.00;;;2.10
68012;BMP180;54794;48.348;7.878;2023-02-28T09:13:49;99811.00;;;2.00
68012;BMP180;54794;48.348;7.878;2023-02-28T09:16:17;99821.00;;;2.10
68012;BMP180;54794;48.348;7.878;2023-02-28T09:18:45;99813.00;;;2.00
68012;BMP180;54794;48.348;7.878;2023-02-28T09:21:18;99806.00;;;2.00
68012;BMP180;54794;48.348;7.878;2023-02-28T09:23:50;99807.00;;;1.90
68012;BMP180;54794;48.348;7.878;2023-02-28T09:26:26;99810.00;;;2.00
68012;BMP180;54794;48.348;7.878;2023-02-28T09:29:08;99806.00;;;2.00
68012;BMP180;54794;48.348;7.878;2023-02-28T09:31:35;99809.00;;;2.20
68012;BMP180;54794;48.348;7.878;2023-02-28T09:34:03;99813.00;;;2.00
68012;BMP180;54794;48.348;7.878;2023-02-28T09:36:30;99825.00;;;1.90
68012;BMP180;54794;48.348;7.878;2023-02-28T09:39:12;99806.00;;;2.20
68012;BMP180;54794;48.348;7.878;2023-02-28T09:41:43;99809.00;;;2.30
68012;BMP180;54794;48.348;7.878;2023-02-28T09:47:34;99820.00;;;2.40
68012;BMP180;54794;48.348;7.878;2023-02-28T09:52:55;99817.00;;;2.40
68012;BMP180;54794;48.348;7.878;2023-02-28T09:58:30;99833.00;;;2.30
68012;BMP180;54794;48.348;7.878;2023-02-28T10:04:48;99835.00;;;2.40
68012;BMP180;54794;48.348;7.878;2023-02-28T10:10:39;99823.00;;;2.50
68012;BMP180;54794;48.348;7.878;2023-02-28T10:16:40;99821.00;;;2.50
68012;BMP180;54794;48.348;7.878;2023-02-28T10:19:19;99813.00;;;2.50
68012;BMP180;54794;48.348;7.878;2023-02-28T10:22:15;99826.00;;;2.60
68012;BMP180;54794;48.348;7.878;2023-02-28T10:24:55;99819.00;;;2.70
68012;BMP180;54794;48.348;7.878;2023-02-28T10:27:31;99830.00;;;2.60
68012;BMP180;54794;48.348;7.878;2023-02-28T10:30:00;99823.00;;;2.90
68012;BMP180;54794;48.348;7.878;2023-02-28T10:32:38;99817.00;;;2.90
68012;BMP180;54794;48.348;7.878;2023-02-28T10:35:22;99826.00;;;2.80
68012;BMP180;54794;48.348;7.878;2023-02-28T10:37:55;99831.00;;;2.70
68012;BMP180;54794;48.348;7.878;2023-02-28T10:43:01;99817.00;;;2.90
68012;BMP180;54794;48.348;7.878;2023-02-28T10:45:31;99818.00;;;2.80
68012;BMP180;54794;48.348;7.878;2023-02-28T10:48:22;99818.00;;;2.80
68012;BMP180;54794;48.348;7.878;2023-02-28T10:50:54;99813.00;;;3.00
68012;BMP180;54794;48.348;7.878;2023-02-28T10:56:20;99819.00;;;3.30
68012;BMP180;54794;48.348;7.878;2023-02-28T11:01:42;99826.00;;;3.00
68012;BMP180;54794;48.348;7.878;2023-02-28T11:04:44;99818.00;;;3.30
68012;BMP180;54794;48.348;7.878;2023-02-28T11:07:22;99809.00;;;3.20
68012;BMP180;54794;48.348;7.878;2023-02-28T11:09:56;99822.00;;;3.40
68012;BMP180;54794;48.348;7.878;2023-02-28T11:12:34;99824.00;;;3.30
68012;BMP180;54794;48.348;7.878;2023-02-28T11:18:01;99826.00;;;3.50
68012;BMP180;54794;48.348;7.878;2023-02-28T11:20:48;99822.00;;;3.80
68012;BMP180;54794;48.348;7.878;2023-02-28T11:23:25;99819.00;;;3.60
68012;BMP180;54794;48.348;7.878;2023-02-28T11:26:02;99813.00;;;3.60
68012;BMP180;54794;48.348;7.878;2023-02-28T11:28:39;99826.00;;;3.70
68012;BMP180;54794;48.348;7.878;2023-02-28T11:33:55;99823.00;;;4.00
68012;BMP180;54794;48.348;7.878;2023-02-28T11:36:31;99819.00;;;3.70
68012;BMP180;54794;48.348;7.878;2023-02-28T11:39:12;99826.00;;;3.70
68012;BMP180;54794;48.348;7.878;2023-02-28T11:48:21;99817.00;;;3.80
68012;BMP180;54794;48.348;7.878;2023-02-28T11:56:52;99801.00;;;3.70
68012;BMP180;54794;48.348;7.878;2023-02-28T11:59:51;99806.00;;;3.80
68012;BMP180;54794;48.348;7.878;2023-02-28T12:05:48;99813.00;;;3.90
68012;BMP180;54794;48.348;7.878;2023-02-28T12:11:50;99803.00;;;4.00
68012;BMP180;54794;48.348;7.878;2023-02-28T12:17:32;99807.00;;;4.10
68012;BMP180;54794;48.348;7.878;2023-02-28T12:26:07;99788.00;;;4.40
68012;BMP180;54794;48.348;7.878;2023-02-28T12:28:57;99789.00;;;4.30
68012;BMP180;54794;48.348;7.878;2023-02-28T12:31:36;99782.00;;;4.50
68012;BMP180;54794;48.348;7.878;2023-02-28T12:34:13;99773.00;;;4.50
68012;BMP180;54794;48.348;7.878;2023-02-28T12:36:43;99783.00;;;4.30
68012;BMP180;54794;48.348;7.878;2023-02-28T12:39:25;99771.00;;;4.20
68012;BMP180;54794;48.348;7.878;2023-02-28T12:42:03;99773.00;;;4.50
68012;BMP180;54794;48.348;7.878;2023-02-28T12:47:16;99775.00;;;4.50
68012;BMP180;54794;48.348;7.878;2023-02-28T12:50:28;99773.00;;;4.50
68012;BMP180;54794;48.348;7.878;2023-02-28T13:06:16;99777.00;;;4.60
68012;BMP180;54794;48.348;7.878;2023-02-28T13:09:14;99761.00;;;5.00
68012;BMP180;54794;48.348;7.878;2023-02-28T13:11:49;99756.00;;;5.20
68012;BMP180;54794;48.348;7.878;2023-02-28T13:17:02;99767.00;;;4.90
68012;BMP180;54794;48.348;7.878;2023-02-28T13:22:49;99768.00;;;4.90
68012;BMP180;54794;48.348;7.878;2023-02-28T13:26:07;99776.00;;;5.20
68012;BMP180;54794;48.348;7.878;2023-02-28T13:29:13;99766.00;;;5.10
68012;BMP180;54794;48.348;7.878;2023-02-28T13:39:58;99762.00;;;5.90
68012;BMP180;54794;48.348;7.878;2023-02-28T13:45:33;99758.00;;;6.00
68012;BMP180;54794;48.348;7.878;2023-02-28T13:48:25;99753.00;;;6.20
68012;BMP180;54794;48.348;7.878;2023-02-28T13:51:46;99744.00;;;7.00
68012;BMP180;54794;48.348;7.878;2023-02-28T14:07:30;99727.00;;;7.40
68012;BMP180;54794;48.348;7.878;2023-02-28T14:10:47;99732.00;;;7.60
68012;BMP180;54794;48.348;7.878;2023-02-28T14:13:50;99726.00;;;7.30
68012;BMP180;54794;48.348;7.878;2023-02-28T14:16:24;99736.00;;;6.90
68012;BMP180;54794;48.348;7.878;2023-02-28T14:19:19;99742.00;;;6.80
68012;BMP180;54794;48.348;7.878;2023-02-28T14:26:00;99729.00;;;7.90
68012;BMP180;54794;48.348;7.878;2023-02-28T14:33:22;99735.00;;;7.60
68012;BMP180;54794;48.348;7.878;2023-02-28T14:38:58;99724.00;;;7.40
68012;BMP180;54794;48.348;7.878;2023-02-28T14:41:50;99737.00;;;7.60
68012;BMP180;54794;48.348;7.878;2023-02-28T14:44:31;99727.00;;;8.10
68012;BMP180;54794;48.348;7.878;2023-02-28T14:48:15;99738.00;;;8.60
68012;BMP180;54794;48.348;7.878;2023-02-28T14:54:03;99728.00;;;8.00
68012;BMP180;54794;48.348;7.878;2023-02-28T14:57:23;99738.00;;;7.10
68012;BMP180;54794;48.348;7.878;2023-02-28T15:00:39;99737.00;;;8.10
68012;BMP180;54794;48.348;7.878;2023-02-28T15:03:57;99724.00;;;7.90
68012;BMP180;54794;48.348;7.878;2023-02-28T15:07:13;99732.00;;;8.20
68012;BMP180;54794;48.348;7.878;2023-02-28T15:13:14;99724.00;;;8.30
68012;BMP180;54794;48.348;7.878;2023-02-28T15:19:56;99723.00;;;8.30
68012;BMP180;54794;48.348;7.878;2023-02-28T15:23:18;99724.00;;;8.40
68012;BMP180;54794;48.348;7.878;2023-02-28T15:27:12;99727.00;;;8.20
68012;BMP180;54794;48.348;7.878;2023-02-28T15:31:02;99720.00;;;8.40
68012;BMP180;54794;48.348;7.878;2023-02-28T15:40:22;99723.00;;;8.50
68012;BMP180;54794;48.348;7.878;2023-02-28T15:46:09;99719.00;;;8.20
68012;BMP180;54794;48.348;7.878;2023-02-28T15:48:57;99717.00;;;8.70
68012;BMP180;54794;48.348;7.878;2023-02-28T15:51:33;99715.00;;;8.60
68012;BMP180;54794;48.348;7.878;2023-02-28T15:54:20;99730.00;;;8.30
68012;BMP180;54794;48.348;7.878;2023-02-28T16:00:35;99724.00;;;8.60
68012;BMP180;54794;48.348;7.878;2023-02-28T16:09:27;99739.00;;;8.50
68012;BMP180;54794;48.348;7.878;2023-02-28T16:12:32;99744.00;;;8.20
68012;BMP180;54794;48.348;7.878;2023-02-28T16:15:38;99726.00;;;7.90
68012;BMP180;54794;48.348;7.878;2023-02-28T16:18:40;99735.00;;;8.00
68012;BMP180;54794;48.348;7.878;2023-02-28T16:21:13;99733.00;;;8.00
68012;BMP180;54794;48.348;7.878;2023-02-28T16:23:45;99736.00;;;7.90
68012;BMP180;54794;48.348;7.878;2023-02-28T16:26:30;99740.00;;;7.30
68012;BMP180;54794;48.348;7.878;2023-02-28T16:29:05;99739.00;;;7.20
68012;BMP180;54794;48.348;7.878;2023-02-28T16:31:49;99732.00;;;7.30
68012;BMP180;54794;48.348;7.878;2023-02-28T16:34:31;99732.00;;;7.30
68012;BMP180;54794;48.348;7.878;2023-02-28T16:37:13;99739.00;;;7.20
68012;BMP180;54794;48.348;7.878;2023-02-28T16:40:16;99745.00;;;7.20
68012;BMP180;54794;48.348;7.878;2023-02-28T16:43:18;99742.00;;;7.00
68012;BMP180;54794;48.348;7.878;2023-02-28T16:46:18;99754.00;;;7.30
68012;BMP180;54794;48.348;7.878;2023-02-28T16:49:23;99752.00;;;6.90
68012;BMP180;54794;48.348;7.878;2023-02-28T16:52:00;99758.00;;;6.90
68012;BMP180;54794;48.348;7.878;2023-02-28T16:54:42;99759.00;;;7.00
68012;BMP180;54794;48.348;7.878;2023-02-28T16:57:27;99759.00;;;7.00
68012;BMP180;54794;48.348;7.878;2023-02-28T16:59:58;99760.00;;;6.60
68012;BMP180;54794;48.348;7.878;2023-02-28T17:03:10;99754.00;;;6.70
68012;BMP180;54794;48.348;7.878;2023-02-28T17:06:22;99767.00;;;6.50
68012;BMP180;54794;48.348;7.878;2023-02-28T17:09:40;99775.00;;;6.30
68012;BMP180;54794;48.348;7.878;2023-02-28T17:12:15;99760.00;;;6.50
68012;BMP180;54794;48.348;7.878;2023-02-28T17:14:47;99780.00;;;6.60
68012;BMP180;54794;48.348;7.878;2023-02-28T17:17:28;99783.00;;;6.40
68012;BMP180;54794;48.348;7.878;2023-02-28T17:20:06;99777.00;;;6.20
68012;BMP180;54794;48.348;7.878;2023-02-28T17:22:36;99784.00;;;6.30
68012;BMP180;54794;48.348;7.878;2023-02-28T17:25:22;99791.00;;;5.50
68012;BMP180;54794;48.348;7.878;2023-02-28T17:28:00;99782.00;;;5.30
68012;BMP180;54794;48.348;7.878;2023-02-28T17:30:37;99795.00;;;6.00
68012;BMP180;54794;48.348;7.878;2023-02-28T17:33:35;99794.00;;;5.90
68012;BMP180;54794;48.348;7.878;2023-02-28T17:36:24;99806.00;;;5.60
68012;BMP180;54794;48.348;7.878;2023-02-28T17:39:17;99811.00;;;5.40
68012;BMP180;54794;48.348;7.878;2023-02-28T17:42:05;99813.00;;;5.10
68012;BMP180;54794;48.348;7.878;2023-02-28T17:44:35;99812.00;;;5.20
68012;BMP180;54794;48.348;7.878;2023-02-28T17:47:02;99799.00;;;5.50
68012;BMP180;54794;48.348;7.878;2023-02-28T17:49:32;99805.00;;;5.70
68012;BMP180;54794;48.348;7.878;2023-02-28T17:51:59;99819.00;;;4.80
68012;BMP180;54794;48.348;7.878;2023-02-28T17:54:26;99829.00;;;4.50
68012;BMP180;54794;48.348;7.878;2023-02-28T17:56:53;99811.00;;;5.10
68012;BMP180;54794;48.348;7.878;2023-02-28T17:59:20;99810.00;;;5.30
68012;BMP180;54794;48.348;7.878;2023-02-28T18:01:47;99822.00;;;5.30
68012;BMP180;54794;48.348;7.878;2023-02-28T18:04:14;99826.00;;;4.50
68012;BMP180;54794;48.348;7.878;2023-02-28T18:06:45;99839.00;;;4.10
68012;BMP180;54794;48.348;7.878;2023-02-28T18:09:22;99832.00;;;4.60
68012;BMP180;54794;48.348;7.878;2023-02-28T18:11:51;99833.00;;;4.50
68012;BMP180;54794;48.348;7.878;2023-02-28T18:14:21;99835.00;;;4.80
68012;BMP180;54794;48.348;7.878;2023-02-28T18:16:52;99840.00;;;4.50
68012;BMP180;54794;48.348;7.878;2023-02-28T18:19:19;99835.00;;;4.70
68012;BMP180;54794;48.348;7.878;2023-02-28T18:21:51;99848.00;;;4.50
68012;BMP180;54794;48.348;7.878;2023-02-28T18:24:20;99838.00;;;4.00